createdAt,value
2023-06-21T00:02:26.169Z,77.39
2023-06-21T00:04:56.867Z,77.53
2023-06-21T00:07:25.188Z,78.13
2023-06-21T00:09:53.073Z,78.02
2023-06-21T00:12:21.688Z,77.40
2023-06-21T00:14:48.428Z,77.62
2023-06-21T00:17:15.027Z,77.37
2023-06-21T00:19:41.595Z,77.36
2023-06-21T00:22:08.576Z,77.47
2023-06-21T00:24:35.272Z,77.53
2023-06-21T00:27:02.014Z,77.52
2023-06-21T00:29:28.834Z,77.71
2023-06-21T00:31:55.461Z,77.57
2023-06-21T00:34:22.112Z,77.73
2023-06-21T00:36:48.653Z,77.41
2023-06-21T00:39:15.924Z,77.57
2023-06-21T00:41:42.845Z,77.64
2023-06-21T00:44:09.566Z,77.62
2023-06-21T00:46:36.229Z,77.96
2023-06-21T00:49:05.269Z,77.68
2023-06-21T00:51:34.074Z,77.90
2023-06-21T00:54:01.154Z,77.66
2023-06-21T00:56:27.798Z,78.00
2023-06-21T00:58:54.310Z,77.87
2023-06-21T01:01:21.509Z,77.86
2023-06-21T01:03:48.247Z,77.61
2023-06-21T01:06:36.191Z,77.88
2023-06-21T01:09:06.097Z,78.01
2023-06-21T01:11:45.308Z,77.92
2023-06-21T01:14:36.938Z,77.62
2023-06-21T01:17:06.769Z,77.65
2023-06-21T01:19:52.118Z,78.35
2023-06-21T01:22:21.629Z,78.03
2023-06-21T01:25:08.074Z,78.19
2023-06-21T01:28:16.839Z,78.32
2023-06-21T01:30:46.715Z,78.56
2023-06-21T01:33:14.156Z,77.90
2023-06-21T01:35:42.346Z,78.22
2023-06-21T01:38:08.922Z,78.46
2023-06-21T01:40:38.588Z,78.71
2023-06-21T01:43:06.948Z,78.76
2023-06-21T01:45:33.946Z,78.39
2023-06-21T01:48:03.704Z,78.37
2023-06-21T01:50:32.438Z,78.16
2023-06-21T01:53:02.492Z,78.52
2023-06-21T01:55:31.374Z,78.60
2023-06-21T01:57:58.312Z,78.69
2023-06-21T02:00:28.437Z,78.76
2023-06-21T02:03:05.971Z,78.63
2023-06-21T02:05:35.082Z,78.06
2023-06-21T02:08:06.014Z,78.36
2023-06-21T02:10:32.955Z,78.28
2023-06-21T02:12:59.899Z,78.09
2023-06-21T02:15:26.492Z,78.29
2023-06-21T02:17:54.771Z,78.46
2023-06-21T02:20:23.690Z,78.18
2023-06-21T02:22:50.828Z,78.53
2023-06-21T02:25:18.386Z,78.03
2023-06-21T02:27:45.258Z,78.10
2023-06-21T02:30:12.186Z,78.17
2023-06-21T02:32:38.767Z,78.22
2023-06-21T02:35:06.539Z,78.20
2023-06-21T02:37:33.641Z,78.67
2023-06-21T02:40:00.375Z,78.34
2023-06-21T02:42:31.052Z,79.40
2023-06-21T02:44:57.660Z,78.34
2023-06-21T02:47:24.403Z,78.38
2023-06-21T02:49:50.948Z,78.24
2023-06-21T02:52:18.893Z,78.83
2023-06-21T02:54:45.538Z,78.45
2023-06-21T02:57:12.111Z,78.49
2023-06-21T02:59:38.984Z,78.73
2023-06-21T03:02:06.396Z,78.62
2023-06-21T03:04:33.054Z,78.54
2023-06-21T03:07:02.497Z,78.70
2023-06-21T03:09:29.994Z,78.84
2023-06-21T03:11:56.794Z,78.46
2023-06-21T03:14:23.573Z,78.60
2023-06-21T03:16:50.862Z,78.43
2023-06-21T03:19:19.010Z,79.09
2023-06-21T03:21:46.895Z,78.68
2023-06-21T03:24:13.645Z,78.97
2023-06-21T03:26:40.327Z,78.71
2023-06-21T03:29:08.100Z,78.73
2023-06-21T03:31:35.779Z,78.62
2023-06-21T03:34:02.571Z,79.27
2023-06-21T03:36:29.923Z,78.77
2023-06-21T03:38:56.604Z,78.57
2023-06-21T03:41:23.272Z,78.65
2023-06-21T03:43:50.107Z,78.82
2023-06-21T03:46:16.944Z,78.72
2023-06-21T03:48:44.146Z,79.11
2023-06-21T03:51:10.723Z,79.35
2023-06-21T03:53:37.547Z,79.03
2023-06-21T03:56:05.515Z,79.08
2023-06-21T03:58:32.189Z,78.82
2023-06-21T04:00:58.983Z,79.22
2023-06-21T04:03:25.732Z,79.26
2023-06-21T04:05:52.506Z,79.08
2023-06-21T04:08:19.101Z,79.28
2023-06-21T04:10:45.660Z,79.35
2023-06-21T04:13:12.454Z,79.42
2023-06-21T04:15:39.096Z,79.61
2023-06-21T04:18:05.855Z,79.71
2023-06-21T04:20:32.753Z,79.71
2023-06-21T04:22:59.725Z,79.80
2023-06-21T04:25:26.329Z,79.53
2023-06-21T04:27:55.479Z,79.79
2023-06-21T04:30:22.709Z,80.31
2023-06-21T04:32:49.485Z,80.20
2023-06-21T04:35:17.717Z,80.15
2023-06-21T04:37:49.080Z,80.38
2023-06-21T04:40:18.685Z,80.30
2023-06-21T04:42:47.337Z,80.66
2023-06-21T04:45:18.037Z,80.47
2023-06-21T04:47:48.003Z,80.90
2023-06-21T04:50:21.948Z,81.20
2023-06-21T04:52:50.602Z,81.49
2023-06-21T04:55:19.388Z,81.28
2023-06-21T04:57:47.974Z,81.52
2023-06-21T05:00:15.568Z,81.31
2023-06-21T05:02:42.361Z,81.53
2023-06-21T05:05:09.375Z,81.24
2023-06-21T05:07:38.674Z,81.38
2023-06-21T05:10:08.714Z,81.29
2023-06-21T05:12:37.486Z,81.17
2023-06-21T05:15:06.465Z,81.62
2023-06-21T05:17:33.684Z,81.40
2023-06-21T05:20:00.674Z,81.40
2023-06-21T05:22:27.292Z,81.44
2023-06-21T05:24:53.961Z,81.20
2023-06-21T05:27:21.054Z,81.20
2023-06-21T05:29:47.693Z,81.38
2023-06-21T05:32:14.598Z,81.79
2023-06-21T05:34:41.162Z,81.55
2023-06-21T05:37:07.673Z,82.52
2023-06-21T05:39:34.215Z,82.70
2023-06-21T05:42:00.966Z,83.50
2023-06-21T05:44:27.773Z,83.36
2023-06-21T05:46:54.527Z,83.00
2023-06-21T05:49:21.177Z,82.60
2023-06-21T05:51:47.873Z,82.47
2023-06-21T05:54:15.886Z,82.13
2023-06-21T05:56:42.658Z,82.22
2023-06-21T05:59:09.577Z,82.23
2023-06-21T06:01:36.749Z,82.12
2023-06-21T06:04:03.779Z,81.83
2023-06-21T06:06:39.923Z,80.74
2023-06-21T06:09:10.968Z,81.96
2023-06-21T06:11:37.692Z,81.93
2023-06-21T06:14:04.327Z,81.43
2023-06-21T06:16:31.115Z,80.97
2023-06-21T06:18:59.046Z,80.27
2023-06-21T06:21:25.797Z,79.53
2023-06-21T06:23:54.024Z,79.12
2023-06-21T06:26:26.325Z,78.98
2023-06-21T06:28:56.542Z,78.38
2023-06-21T06:31:25.240Z,78.57
2023-06-21T06:33:52.286Z,79.29
2023-06-21T06:36:19.762Z,79.66
2023-06-21T06:38:47.956Z,80.19
2023-06-21T06:41:14.715Z,80.51
2023-06-21T06:43:41.482Z,81.05
2023-06-21T06:46:08.152Z,81.04
2023-06-21T06:48:34.992Z,81.66
2023-06-21T06:51:01.679Z,80.99
2023-06-21T06:53:28.351Z,81.26
2023-06-21T06:55:56.289Z,80.75
2023-06-21T06:58:22.930Z,77.33
2023-06-21T07:00:49.753Z,79.76
2023-06-21T07:03:16.990Z,80.06
2023-06-21T07:05:45.792Z,79.14
2023-06-21T07:08:15.026Z,79.05
2023-06-21T07:10:42.262Z,78.19
2023-06-21T07:13:09.139Z,77.35
2023-06-21T07:15:36.978Z,76.99
2023-06-21T07:18:04.116Z,77.76
2023-06-21T07:20:32.552Z,76.74
2023-06-21T07:22:59.808Z,75.95
2023-06-21T07:25:26.713Z,75.76
2023-06-21T07:27:53.560Z,75.53
2023-06-21T07:30:21.513Z,74.80
2023-06-21T07:32:49.308Z,74.77
2023-06-21T07:35:17.684Z,74.99
2023-06-21T07:37:45.510Z,74.77
2023-06-21T07:40:12.870Z,73.47
2023-06-21T07:42:40.922Z,73.00
2023-06-21T07:45:08.793Z,72.21
2023-06-21T07:47:36.274Z,72.35
2023-06-21T07:50:20.302Z,71.77
2023-06-21T07:52:49.167Z,70.74
2023-06-21T07:55:16.136Z,70.24
2023-06-21T07:57:43.296Z,70.08
2023-06-21T08:00:13.206Z,69.31
2023-06-21T08:02:45.775Z,69.77
2023-06-21T08:05:16.052Z,68.96
2023-06-21T08:07:43.704Z,68.66
2023-06-21T08:10:12.824Z,68.91
2023-06-21T08:12:39.580Z,67.95
2023-06-21T08:15:07.365Z,67.39
2023-06-21T08:17:34.298Z,66.89
2023-06-21T08:20:02.895Z,66.48
2023-06-21T08:22:29.764Z,65.41
2023-06-21T08:24:59.432Z,65.04
2023-06-21T08:27:26.323Z,64.34
2023-06-21T08:29:53.874Z,63.84
2023-06-21T08:32:21.559Z,63.82
2023-06-21T08:34:48.480Z,63.45
2023-06-21T08:37:15.446Z,62.49
2023-06-21T08:39:42.168Z,62.31
2023-06-21T08:42:09.568Z,61.00
2023-06-21T08:44:36.494Z,59.93
2023-06-21T08:47:07.805Z,60.58
2023-06-21T08:49:41.974Z,60.32
2023-06-21T08:52:12.719Z,60.08
2023-06-21T08:54:41.676Z,59.88
2023-06-21T08:57:15.437Z,59.28
2023-06-21T08:59:46.737Z,58.92
2023-06-21T09:02:36.342Z,55.64
2023-06-21T09:05:13.515Z,58.45
2023-06-21T09:07:46.774Z,57.92
2023-06-21T09:10:16.632Z,56.95
2023-06-21T09:12:45.403Z,57.08
2023-06-21T09:15:12.985Z,56.31
2023-06-21T09:17:40.099Z,56.03
2023-06-21T09:20:09.549Z,55.04
2023-06-21T09:22:37.967Z,54.87
2023-06-21T09:25:05.775Z,54.52
2023-06-21T09:27:34.629Z,54.05
2023-06-21T09:30:12.168Z,53.57
2023-06-21T09:32:48.300Z,52.48
2023-06-21T09:35:15.428Z,51.29
2023-06-21T09:37:45.563Z,51.51
2023-06-21T09:40:13.846Z,51.56
2023-06-21T09:42:42.559Z,51.16
2023-06-21T09:45:12.153Z,51.20
2023-06-21T09:47:42.913Z,49.56
2023-06-21T09:50:11.438Z,49.92
2023-06-21T09:52:43.162Z,50.24
2023-06-21T09:55:14.574Z,49.79
2023-06-21T09:57:41.686Z,49.71
2023-06-21T10:00:09.468Z,49.50
2023-06-21T10:02:42.680Z,49.65
2023-06-21T10:05:17.675Z,48.62
2023-06-21T10:07:47.920Z,48.39
2023-06-21T10:10:15.624Z,48.30
2023-06-21T10:12:56.051Z,48.09
2023-06-21T10:15:26.820Z,47.84
2023-06-21T10:20:24.237Z,47.22
2023-06-21T10:22:53.900Z,46.84
2023-06-21T10:25:25.382Z,46.22
2023-06-21T10:27:53.724Z,45.96
2023-06-21T10:30:22.862Z,45.86
2023-06-21T10:32:50.937Z,45.73
2023-06-21T10:35:21.065Z,45.28
2023-06-21T10:37:51.418Z,44.98
2023-06-21T10:40:19.380Z,45.18
2023-06-21T10:42:47.034Z,45.04
2023-06-21T10:45:15.251Z,44.80
2023-06-21T10:47:42.546Z,45.22
2023-06-21T10:50:10.567Z,44.03
2023-06-21T10:52:38.308Z,43.98
2023-06-21T10:55:05.599Z,43.75
2023-06-21T10:57:34.942Z,43.18
2023-06-21T11:00:07.994Z,42.80
2023-06-21T11:02:35.836Z,43.68
2023-06-21T11:05:16.996Z,43.45
2023-06-21T11:08:03.102Z,43.72
2023-06-21T11:10:59.423Z,42.82
2023-06-21T11:13:36.554Z,42.92
2023-06-21T11:16:18.965Z,42.76
2023-06-21T11:19:01.088Z,43.29
2023-06-21T11:21:46.845Z,42.99
2023-06-21T11:24:19.294Z,42.95
2023-06-21T11:26:52.507Z,42.02
2023-06-21T11:29:19.345Z,42.56
2023-06-21T11:31:47.839Z,42.53
2023-06-21T11:34:24.761Z,42.85
2023-06-21T11:37:19.129Z,42.76
2023-06-21T11:39:46.436Z,42.71
2023-06-21T11:42:16.915Z,42.04
2023-06-21T11:44:44.149Z,42.13
2023-06-21T11:47:20.135Z,41.85
2023-06-21T11:49:52.103Z,42.05
2023-06-21T11:52:26.282Z,41.93
2023-06-21T11:54:53.141Z,42.09
2023-06-21T11:57:19.999Z,41.65
2023-06-21T11:59:46.932Z,41.71
2023-06-21T12:02:18.377Z,41.48
2023-06-21T12:04:45.489Z,40.95
2023-06-21T12:07:12.433Z,40.72
2023-06-21T12:09:40.333Z,40.46
2023-06-21T12:12:11.113Z,40.52
2023-06-21T12:14:38.814Z,39.94
2023-06-21T12:17:06.601Z,39.82
2023-06-21T12:19:34.011Z,39.84
2023-06-21T12:22:04.258Z,39.91
2023-06-21T12:24:32.376Z,39.18
2023-06-21T12:27:04.999Z,39.48
2023-06-21T12:29:37.351Z,39.13
2023-06-21T12:32:04.778Z,39.15
2023-06-21T12:34:33.236Z,39.05
2023-06-21T12:37:00.374Z,38.97
2023-06-21T12:39:30.435Z,39.16
2023-06-21T12:42:06.139Z,38.70
2023-06-21T12:44:52.290Z,37.66
2023-06-21T12:47:19.439Z,37.91
2023-06-21T12:49:49.870Z,37.39
2023-06-21T12:52:27.398Z,36.07
2023-06-21T12:55:00.523Z,36.69
2023-06-21T12:57:34.007Z,36.30
2023-06-21T13:00:00.924Z,36.22
2023-06-21T13:02:30.660Z,35.92
2023-06-21T13:05:01.994Z,35.78
2023-06-21T13:07:43.538Z,36.07
2023-06-21T13:10:31.331Z,35.73
2023-06-21T13:12:58.622Z,35.72
2023-06-21T13:15:46.911Z,35.65
2023-06-21T13:19:16.233Z,35.68
2023-06-21T13:26:10.774Z,34.55
2023-06-21T13:28:27.770Z,33.67
2023-06-21T13:31:25.432Z,34.92
2023-06-21T13:33:58.067Z,35.13
2023-06-21T13:36:31.287Z,35.10
2023-06-21T13:40:18.723Z,34.82
2023-06-21T13:42:53.109Z,35.20
2023-06-21T13:45:57.174Z,34.94
2023-06-21T13:51:46.312Z,35.70
2023-06-21T13:54:52.740Z,35.53
2023-06-21T14:23:00.417Z,34.76
2023-06-21T15:15:10.506Z,34.33
2023-06-21T15:17:38.621Z,34.58
2023-06-21T15:20:06.979Z,34.89
2023-06-21T15:22:45.054Z,34.71
2023-06-21T15:25:14.402Z,34.86
2023-06-21T15:27:46.614Z,35.22
2023-06-21T15:30:37.321Z,35.38
2023-06-21T15:33:15.382Z,35.45
2023-06-21T15:35:46.215Z,35.32
2023-06-21T15:38:18.072Z,35.51
2023-06-21T15:41:05.721Z,35.31
2023-06-21T15:46:56.763Z,35.06
2023-06-21T15:50:01.872Z,35.16
2023-06-21T15:52:42.456Z,35.43
2023-06-21T15:55:27.773Z,35.76
2023-06-21T15:58:22.182Z,35.66
2023-06-21T16:01:17.480Z,35.52
2023-06-21T16:03:48.030Z,35.34
2023-06-21T16:06:21.391Z,34.98
2023-06-21T16:11:31.894Z,35.34
2023-06-21T16:14:12.546Z,35.19
2023-06-21T16:16:47.986Z,35.39
2023-06-21T16:22:18.389Z,35.02
2023-06-21T16:25:08.636Z,35.25
2023-06-21T16:27:51.330Z,35.15
2023-06-21T16:30:33.468Z,35.51
2023-06-21T16:33:19.324Z,35.79
2023-06-21T16:36:11.902Z,35.92
2023-06-21T16:38:41.796Z,35.86
2023-06-21T16:41:21.931Z,35.43
2023-06-21T16:43:53.632Z,35.50
2023-06-21T16:46:45.377Z,35.94
2023-06-21T16:49:12.645Z,36.98
2023-06-21T16:51:45.713Z,37.15
2023-06-21T16:54:21.232Z,37.25
2023-06-21T16:57:28.537Z,37.59
2023-06-21T17:00:00.899Z,37.61
2023-06-21T17:02:34.682Z,37.66
2023-06-21T17:05:25.431Z,37.83
2023-06-21T17:07:56.818Z,37.68
2023-06-21T17:10:25.930Z,37.91
2023-06-21T17:12:55.573Z,37.49
2023-06-21T17:15:35.869Z,37.32
2023-06-21T17:18:09.675Z,36.91
2023-06-21T17:20:50.787Z,36.76
2023-06-21T17:23:30.146Z,36.67
2023-06-21T17:26:00.369Z,36.82
2023-06-21T17:32:00.619Z,36.17
2023-06-21T17:34:52.115Z,35.71
2023-06-21T17:47:24.050Z,35.28
2023-06-21T17:51:53.229Z,35.64
2023-06-21T17:59:54.750Z,36.06
2023-06-21T18:02:36.439Z,36.41
2023-06-21T18:05:43.131Z,36.40
2023-06-21T18:15:26.890Z,37.40
2023-06-21T18:22:13.435Z,37.87
2023-06-21T18:50:56.864Z,39.72
2023-06-21T18:53:25.962Z,39.50
2023-06-21T18:55:52.925Z,39.93
2023-06-21T18:58:20.527Z,39.79
2023-06-21T19:00:47.371Z,39.88
2023-06-21T19:03:14.194Z,40.48
2023-06-21T19:05:41.099Z,40.38
2023-06-21T19:08:08.756Z,40.33
2023-06-21T19:10:35.446Z,40.81
2023-06-21T19:13:02.156Z,41.08
2023-06-21T19:15:28.895Z,41.44
2023-06-21T19:17:56.826Z,40.98
2023-06-21T19:20:23.709Z,41.70
2023-06-21T19:22:50.633Z,41.73
2023-06-21T19:25:17.750Z,41.58
2023-06-21T19:27:45.672Z,41.66
2023-06-21T19:30:13.720Z,41.94
2023-06-21T19:32:42.714Z,42.19
2023-06-21T19:35:12.265Z,42.01
2023-06-21T19:37:39.253Z,42.12
2023-06-21T19:40:06.655Z,42.49
2023-06-21T19:42:33.627Z,42.69
2023-06-21T19:45:00.395Z,42.92
2023-06-21T19:47:31.937Z,42.96
2023-06-21T19:49:58.686Z,42.94
2023-06-21T19:52:25.653Z,43.21
2023-06-21T19:54:52.285Z,43.41
2023-06-21T19:57:20.240Z,43.67
2023-06-21T19:59:46.930Z,43.64
2023-06-21T20:02:13.574Z,43.72
2023-06-21T20:04:40.335Z,43.94
2023-06-21T20:07:07.124Z,43.86
2023-06-21T20:09:33.728Z,44.20
2023-06-21T20:12:00.339Z,43.94
2023-06-21T20:14:26.889Z,44.12
2023-06-21T20:16:53.619Z,44.29
2023-06-21T20:19:20.458Z,44.19
2023-06-21T20:21:47.168Z,44.16
2023-06-21T20:24:17.381Z,44.56
2023-06-21T20:26:44.138Z,44.54
2023-06-21T20:29:10.947Z,44.31
2023-06-21T20:31:37.730Z,44.51
2023-06-21T20:34:04.581Z,45.01
2023-06-21T20:36:34.305Z,45.43
2023-06-21T20:39:06.426Z,45.86
2023-06-21T20:41:33.573Z,45.61
2023-06-21T20:44:01.329Z,46.14
2023-06-21T20:46:29.463Z,46.27
2023-06-21T20:48:59.552Z,46.11
2023-06-21T20:51:26.658Z,46.07
2023-06-21T20:53:53.517Z,45.97
2023-06-21T20:56:20.494Z,45.91
2023-06-21T20:58:47.770Z,45.79
2023-06-21T21:01:15.267Z,45.91
2023-06-21T21:03:43.284Z,46.14
2023-06-21T21:06:10.691Z,46.09
2023-06-21T21:08:39.046Z,47.32
2023-06-21T21:11:07.282Z,47.36
2023-06-21T21:13:34.861Z,47.63
2023-06-21T21:16:01.611Z,47.40
2023-06-21T21:18:28.469Z,47.70
2023-06-21T21:20:55.421Z,47.33
2023-06-21T21:23:22.235Z,46.89
2023-06-21T21:25:49.489Z,46.95
2023-06-21T21:28:16.374Z,47.38
2023-06-21T21:30:43.200Z,47.22
2023-06-21T21:33:10.121Z,47.54
2023-06-21T21:35:37.110Z,47.06
2023-06-21T21:38:07.233Z,47.55
2023-06-21T21:40:34.163Z,47.78
2023-06-21T21:43:01.131Z,47.90
2023-06-21T21:45:27.894Z,48.49
2023-06-21T21:47:54.792Z,49.88
2023-06-21T21:50:22.052Z,50.28
2023-06-21T21:52:48.736Z,50.38
2023-06-21T21:55:18.375Z,50.28
2023-06-21T21:57:45.221Z,49.59
2023-06-21T22:00:12.739Z,49.62
2023-06-21T22:02:39.946Z,49.29
2023-06-21T22:05:07.946Z,50.14
2023-06-21T22:07:35.036Z,49.60
2023-06-21T22:10:03.049Z,50.18
2023-06-21T22:12:30.107Z,50.25
2023-06-21T22:14:56.858Z,50.05
2023-06-21T22:17:23.943Z,50.30
2023-06-21T22:19:50.533Z,50.25
2023-06-21T22:22:24.822Z,50.27
2023-06-21T22:24:51.442Z,50.65
2023-06-21T22:27:18.486Z,50.78
2023-06-21T22:29:45.238Z,51.58
2023-06-21T22:32:12.064Z,51.31
2023-06-21T22:34:39.010Z,51.25
2023-06-21T22:37:06.174Z,50.40
2023-06-21T22:39:33.585Z,50.91
2023-06-21T22:42:00.562Z,51.99
2023-06-21T22:44:27.298Z,51.75
2023-06-21T22:46:54.322Z,51.83
2023-06-21T22:49:24.070Z,52.07
2023-06-21T22:51:50.736Z,52.09
2023-06-21T22:54:17.518Z,52.16
2023-06-21T22:56:44.122Z,52.35
2023-06-21T22:59:10.751Z,52.09
2023-06-21T23:01:37.474Z,52.30
2023-06-21T23:04:04.451Z,52.89
2023-06-21T23:06:31.049Z,52.62
2023-06-21T23:08:58.049Z,53.02
2023-06-21T23:11:27.579Z,53.25
2023-06-21T23:13:58.923Z,53.00
2023-06-21T23:16:26.819Z,53.39
2023-06-21T23:18:57.420Z,54.29
2023-06-21T23:21:27.081Z,55.07
2023-06-21T23:23:54.545Z,55.51
2023-06-21T23:26:27.273Z,55.45
2023-06-21T23:28:56.306Z,55.50
2023-06-21T23:31:23.828Z,54.73
2023-06-21T23:33:50.578Z,55.04
2023-06-21T23:36:17.338Z,55.17
2023-06-21T23:38:55.824Z,56.89
2023-06-21T23:41:24.015Z,55.17
2023-06-21T23:44:00.301Z,55.15
2023-06-21T23:46:30.829Z,55.23
2023-06-21T23:48:59.252Z,56.08
2023-06-21T23:51:31.713Z,57.44
2023-06-21T23:53:58.586Z,56.14
2023-06-21T23:56:27.949Z,55.97
2023-06-21T23:58:55.343Z,55.28
